Time;durP1;ratioP1;P1;durP2;ratioP2;P2;SDS_P1;SDS_P2;PMS_P1;PMS_P2;Temp;Humidity;BMP_temperature;BMP_pressure;BME280_temperature;BME280_humidity;BME280_pressure;Samples;Min_cycle;Max_cycle;Signal;HPM_P1;HPM_P2
2022/05/17 00:00:32;;;;;;;11.27;6.82;;;;;;;19.45;57.11;95297.94;5062459;28;20267;-71
2022/05/17 00:02:59;;;;;;;11.43;7.15;;;;;;;19.46;56.81;95301.34;5062400;28;20330;-73
2022/05/17 00:05:27;;;;;;;11.00;6.63;;;;;;;19.37;56.91;95292.47;5061293;28;20750;-71
2022/05/17 00:07:56;;;;;;;11.43;8.70;;;;;;;19.42;56.93;95293.00;5059084;28;20229;-72
2022/05/17 00:10:23;;;;;;;12.90;10.00;;;;;;;19.44;56.96;95296.31;5060469;28;20224;-73
2022/05/17 00:12:51;;;;;;;20.58;11.23;;;;;;;19.45;56.68;95295.38;5062170;28;20205;-73
2022/05/17 00:15:19;;;;;;;13.68;9.48;;;;;;;19.20;57.53;95295.28;5060534;28;20202;-73
2022/05/17 00:17:46;;;;;;;13.35;8.32;;;;;;;19.09;57.81;95288.22;5061522;28;20202;-72
2022/05/17 00:20:14;;;;;;;12.10;7.88;;;;;;;19.02;57.64;95290.41;5061760;28;20620;-72
2022/05/17 00:22:42;;;;;;;16.10;12.85;;;;;;;18.99;57.51;95289.75;5062099;28;20291;-72
2022/05/17 00:25:13;;;;;;;11.68;7.25;;;;;;;18.87;57.13;95291.34;5060411;28;20197;-72
2022/05/17 00:27:40;;;;;;;9.40;6.15;;;;;;;18.43;58.33;95294.03;5062554;28;20205;-81
2022/05/17 00:30:09;;;;;;;9.57;4.95;;;;;;;18.33;58.01;95291.19;5061883;28;20229;-82
2022/05/17 00:32:37;;;;;;;6.93;4.55;;;;;;;18.11;58.46;95298.53;5062736;28;20699;-81
2022/05/17 00:35:08;;;;;;;6.10;5.25;;;;;;;17.74;59.74;95293.91;5063178;28;20201;-79
2022/05/17 00:37:35;;;;;;;5.95;5.07;;;;;;;17.95;59.00;95288.34;5063349;28;20198;-83
2022/05/17 00:40:02;;;;;;;7.25;4.97;;;;;;;17.62;59.93;95290.25;5064303;28;20558;-80
2022/05/17 00:42:30;;;;;;;5.90;5.32;;;;;;;17.45;60.27;95283.53;5063807;28;20212;-81
2022/05/17 00:44:59;;;;;;;7.20;4.88;;;;;;;17.28;60.95;95284.50;5064232;28;20198;-79
2022/05/17 00:47:29;;;;;;;5.53;4.95;;;;;;;17.02;62.18;95289.41;5063732;28;20263;-72
2022/05/17 00:50:04;;;;;;;21.88;5.90;;;;;;;17.00;62.58;95294.63;5056600;28;20589;-74
2022/05/17 00:52:34;;;;;;;5.00;4.55;;;;;;;17.06;61.83;95286.59;5061289;28;20201;-74
2022/05/17 00:55:07;;;;;;;5.03;4.63;;;;;;;17.02;61.77;95290.25;5056556;28;20249;-75
2022/05/17 00:57:44;;;;;;;6.18;5.68;;;;;;;16.83;62.60;95287.81;5058711;28;20209;-74
2022/05/17 01:00:15;;;;;;;7.10;4.93;;;;;;;16.91;62.74;95288.25;5056452;28;20869;-74
2022/05/17 01:02:44;;;;;;;5.38;4.97;;;;;;;16.38;64.39;95282.56;5058550;28;20198;-74
2022/05/17 01:05:11;;;;;;;7.40;5.28;;;;;;;16.05;65.87;95280.03;5058031;28;20194;-75
2022/05/17 01:07:42;;;;;;;6.25;5.40;;;;;;;16.65;64.51;95281.13;5059306;28;21052;-73
2022/05/17 01:10:11;;;;;;;10.70;5.10;;;;;;;16.86;63.35;95269.69;5056870;28;20635;-73
2022/05/17 01:12:42;;;;;;;5.55;4.97;;;;;;;17.29;62.00;95285.31;5059497;28;20213;-74
2022/05/17 01:15:12;;;;;;;8.85;6.28;;;;;;;17.28;62.03;95281.09;5060061;28;20202;-74
2022/05/17 01:17:41;;;;;;;8.75;4.93;;;;;;;17.45;61.50;95280.94;5061222;28;20198;-74
2022/05/17 01:20:12;;;;;;;5.82;4.90;;;;;;;17.58;60.19;95269.03;5058280;28;20716;-74
2022/05/17 01:22:40;;;;;;;10.48;6.35;;;;;;;17.90;59.98;95274.09;5061228;28;20239;-74
2022/05/17 01:25:09;;;;;;;7.05;4.72;;;;;;;18.17;58.51;95272.47;5063074;28;20202;-74
2022/05/17 01:27:39;;;;;;;7.20;5.00;;;;;;;18.25;58.24;95274.59;5063510;28;20558;-74
2022/05/17 01:30:07;;;;;;;5.05;4.55;;;;;;;18.25;57.98;95259.16;5062921;28;20273;-74
2022/05/17 01:32:35;;;;;;;5.68;4.78;;;;;;;18.31;58.26;95275.00;5062161;28;20205;-74
2022/05/17 01:35:02;;;;;;;4.60;4.28;;;;;;;18.33;58.16;95272.34;5062685;28;20517;-74
2022/05/17 01:37:28;;;;;;;7.38;4.93;;;;;;;18.38;57.95;95269.50;5064378;28;20206;-74
2022/05/17 01:39:56;;;;;;;12.35;5.25;;;;;;;18.28;58.25;95271.81;5063411;28;20578;-74
2022/05/17 01:42:23;;;;;;;7.22;4.88;;;;;;;18.36;58.17;95267.84;5064163;28;20202;-74
2022/05/17 01:44:50;;;;;;;5.80;4.35;;;;;;;18.14;58.86;95262.34;5065926;28;20240;-74
2022/05/17 01:47:17;;;;;;;7.00;4.50;;;;;;;18.23;58.36;95271.28;5062300;28;20207;-74
2022/05/17 01:49:44;;;;;;;5.10;4.70;;;;;;;17.65;59.81;95270.38;5065172;28;20496;-74
2022/05/17 01:52:11;;;;;;;5.60;5.18;;;;;;;17.79;59.42;95266.19;5062668;28;20190;-74
2022/05/17 01:54:38;;;;;;;8.20;4.85;;;;;;;18.00;58.70;95280.34;5061763;28;20840;-74
2022/05/17 01:57:07;;;;;;;6.30;4.10;;;;;;;18.02;59.00;95279.34;5063928;28;20206;-74
2022/05/17 01:59:34;;;;;;;11.63;4.90;;;;;;;17.07;61.84;95287.44;5064214;28;20197;-74
2022/05/17 02:02:03;;;;;;;5.63;5.20;;;;;;;16.67;62.89;95289.56;5064560;28;20618;-74
2022/05/17 02:04:30;;;;;;;6.43;5.00;;;;;;;16.43;63.80;95280.59;5072264;28;20299;-74
2022/05/17 02:06:57;;;;;;;8.73;5.10;;;;;;;16.69;63.27;95277.50;5064924;28;20688;-74
2022/05/17 02:09:23;;;;;;;7.82;4.80;;;;;;;16.96;62.42;95276.00;5065281;28;20198;-74
2022/05/17 02:11:50;;;;;;;9.32;5.03;;;;;;;17.19;61.37;95285.00;5065384;28;20201;-74
2022/05/17 02:14:18;;;;;;;7.97;4.85;;;;;;;16.44;63.17;95259.16;5063653;28;20202;-73
2022/05/17 02:16:45;;;;;;;7.05;5.30;;;;;;;15.96;65.04;95271.06;5064808;28;20581;-74
2022/05/17 02:19:12;;;;;;;12.57;5.13;;;;;;;15.92;65.87;95282.38;5065352;28;22488;-73
2022/05/17 02:21:39;;;;;;;6.80;4.80;;;;;;;16.53;64.34;95281.78;5065557;28;20262;-73
2022/05/17 02:24:07;;;;;;;7.72;5.43;;;;;;;16.88;63.04;95287.59;5064571;28;20241;-74
2022/05/17 02:26:34;;;;;;;5.90;5.38;;;;;;;17.26;61.75;95282.91;5065549;28;20685;-74
2022/05/17 02:29:01;;;;;;;8.80;5.07;;;;;;;16.60;63.01;95288.22;5065122;28;23017;-73
2022/05/17 02:31:30;;;;;;;6.05;5.50;;;;;;;16.04;65.05;95286.91;5064953;28;20213;-73
2022/05/17 02:33:57;;;;;;;6.53;5.07;;;;;;;15.76;66.06;95281.50;5063382;28;20310;-74
2022/05/17 02:36:24;;;;;;;5.43;4.95;;;;;;;15.54;66.87;95290.25;5064455;28;20206;-74
2022/05/17 02:38:50;;;;;;;6.47;5.07;;;;;;;15.52;67.13;95284.38;5064246;28;20743;-74
2022/05/17 02:41:19;;;;;;;8.98;5.30;;;;;;;15.72;66.63;95288.53;5064271;28;21120;-73
2022/05/17 02:43:46;;;;;;;9.07;5.18;;;;;;;15.73;66.58;95289.34;5064990;28;20225;-74
2022/05/17 02:46:12;;;;;;;8.25;5.13;;;;;;;16.26;65.22;95273.78;5064981;28;20207;-75
2022/05/17 02:48:41;;;;;;;5.45;4.90;;;;;;;16.55;64.07;95285.91;5064305;28;20206;-74
2022/05/17 02:51:09;;;;;;;5.85;5.35;;;;;;;16.42;63.98;95274.63;5064911;28;20201;-75
2022/05/17 02:53:36;;;;;;;5.70;5.20;;;;;;;16.44;64.09;95293.34;5064812;28;20208;-74
2022/05/17 02:56:03;;;;;;;13.88;5.57;;;;;;;16.70;63.23;95286.03;5063934;28;20201;-74
2022/05/17 02:58:30;;;;;;;5.53;5.13;;;;;;;17.12;61.94;95288.81;5065616;28;20193;-74
2022/05/17 03:00:57;;;;;;;5.50;5.00;;;;;;;17.34;60.90;95285.84;5062340;28;20205;-74
2022/05/17 03:03:24;;;;;;;9.23;4.65;;;;;;;17.36;60.72;95281.47;5062827;28;20637;-74
2022/05/17 03:05:52;;;;;;;6.25;5.10;;;;;;;17.46;60.78;95284.34;5063138;28;20193;-74
2022/05/17 03:08:19;;;;;;;7.97;5.25;;;;;;;17.51;60.35;95288.31;5063277;28;20270;-74
2022/05/17 03:10:46;;;;;;;6.32;5.22;;;;;;;17.48;60.58;95285.91;5062626;28;20205;-74
2022/05/17 03:13:14;;;;;;;5.90;5.10;;;;;;;17.53;60.16;95280.53;5062952;28;20208;-74
2022/05/17 03:15:42;;;;;;;5.05;4.63;;;;;;;17.62;60.15;95280.81;5062638;28;20209;-74
2022/05/17 03:18:09;;;;;;;7.95;5.63;;;;;;;17.67;59.90;95289.13;5063689;28;20822;-74
2022/05/17 03:20:36;;;;;;;5.75;5.25;;;;;;;17.21;61.01;95290.03;5063243;28;20516;-74
2022/05/17 03:23:04;;;;;;;7.35;4.90;;;;;;;17.04;61.67;95287.59;5064104;28;20197;-75
2022/05/17 03:25:31;;;;;;;11.90;6.72;;;;;;;16.80;62.31;95290.59;5063929;28;21004;-74
2022/05/17 03:27:57;;;;;;;5.97;5.22;;;;;;;17.09;61.87;95288.97;5063849;28;20295;-74
2022/05/17 03:30:24;;;;;;;5.30;4.80;;;;;;;17.37;61.01;95287.44;5062928;28;20214;-74
2022/05/17 03:32:51;;;;;;;7.35;6.13;;;;;;;17.08;61.52;95296.75;5061748;28;20205;-74
2022/05/17 03:35:19;;;;;;;14.07;6.47;;;;;;;16.72;62.79;95297.03;5063887;28;20198;-74
2022/05/17 03:37:46;;;;;;;13.70;5.78;;;;;;;17.04;62.35;95293.56;5062142;28;20205;-73
2022/05/17 03:40:14;;;;;;;10.00;6.00;;;;;;;17.81;60.37;95297.78;5062363;28;20198;-74
2022/05/17 03:42:42;;;;;;;7.32;5.90;;;;;;;17.87;59.26;95274.28;5061500;28;20263;-73
2022/05/17 03:45:10;;;;;;;14.30;6.15;;;;;;;18.41;58.12;95292.47;5062267;28;20267;-74
2022/05/17 03:47:37;;;;;;;13.43;7.25;;;;;;;18.81;56.99;95296.03;5062562;28;20594;-74
2022/05/17 03:50:05;;;;;;;32.33;17.10;;;;;;;19.07;56.07;95294.41;5063416;28;20198;-74
2022/05/17 03:52:32;;;;;;;19.20;11.18;;;;;;;19.16;55.75;95288.69;5062311;28;20205;-74
2022/05/17 03:55:01;;;;;;;12.82;7.55;;;;;;;19.26;55.31;95284.59;5062855;28;20201;-74
2022/05/17 03:57:29;;;;;;;9.90;5.80;;;;;;;19.29;55.52;95300.69;5061436;28;20198;-74
2022/05/17 03:59:57;;;;;;;12.90;6.18;;;;;;;19.32;54.72;95285.00;5063393;28;20198;-74
2022/05/17 04:02:24;;;;;;;10.07;7.30;;;;;;;19.53;54.41;95303.47;5062601;28;20251;-74
2022/05/17 04:04:53;;;;;;;9.23;7.30;;;;;;;19.48;54.11;95295.19;5061713;28;20272;-73
2022/05/17 04:07:19;;;;;;;16.00;6.50;;;;;;;19.51;54.64;95300.16;5062311;28;20755;-74
2022/05/17 04:09:46;;;;;;;11.32;5.93;;;;;;;19.58;53.90;95296.25;5063792;28;20256;-73
2022/05/17 04:12:13;;;;;;;18.90;15.07;;;;;;;19.62;53.87;95282.25;5062526;28;20598;-74
2022/05/17 04:14:42;;;;;;;110.10;65.28;;;;;;;19.66;54.22;95294.00;5062906;28;20198;-73
2022/05/17 04:17:09;;;;;;;21.73;14.90;;;;;;;19.77;53.78;95292.50;5062361;28;20681;-73
2022/05/17 04:19:36;;;;;;;8.98;7.38;;;;;;;19.87;53.50;95290.94;5062883;28;20229;-75
2022/05/17 04:22:07;;;;;;;10.60;6.78;;;;;;;20.05;52.90;95300.00;5062604;28;20201;-75
2022/05/17 04:24:34;;;;;;;9.70;6.28;;;;;;;20.13;52.42;95308.06;5061974;28;21089;-75
2022/05/17 04:27:00;;;;;;;9.40;6.88;;;;;;;20.21;52.06;95313.56;5061779;28;20201;-74
2022/05/17 04:29:27;;;;;;;11.50;8.27;;;;;;;20.44;51.18;95317.19;5061572;28;20274;-74
2022/05/17 04:31:56;;;;;;;38.33;19.50;;;;;;;20.73;50.57;95310.03;5063151;28;20603;-74
2022/05/17 04:34:22;;;;;;;20.00;12.70;;;;;;;20.94;50.22;95313.69;5062854;28;20331;-75
2022/05/17 04:36:49;;;;;;;21.67;9.57;;;;;;;21.00;49.54;95310.69;5061629;28;20212;-75
2022/05/17 04:39:16;;;;;;;11.85;8.90;;;;;;;20.93;49.52;95318.97;5061306;28;20255;-75
2022/05/17 04:41:43;;;;;;;10.70;6.75;;;;;;;20.77;49.57;95293.38;5061137;28;20210;-75
2022/05/17 04:44:10;;;;;;;10.93;6.53;;;;;;;20.78;49.51;95310.53;5062176;28;20229;-75
2022/05/17 04:46:37;;;;;;;18.20;7.10;;;;;;;20.87;49.51;95320.22;5061909;28;20209;-74
2022/05/17 04:49:07;;;;;;;7.75;6.88;;;;;;;20.80;49.93;95318.97;5063551;28;20198;-74
2022/05/17 04:51:35;;;;;;;16.05;9.15;;;;;;;20.82;49.98;95311.94;5061783;28;20229;-75
2022/05/17 04:54:02;;;;;;;29.08;16.00;;;;;;;20.85;49.81;95309.16;5063600;28;20233;-74
2022/05/17 04:56:29;;;;;;;9.60;6.88;;;;;;;20.89;48.96;95308.00;5063173;28;20210;-74
2022/05/17 04:58:56;;;;;;;13.23;6.95;;;;;;;20.82;49.24;95314.53;5069226;28;20198;-74
2022/05/17 05:01:22;;;;;;;12.00;6.68;;;;;;;20.84;49.33;95311.84;5067375;28;20293;-75
2022/05/17 05:03:50;;;;;;;11.27;6.10;;;;;;;21.19;47.33;95304.19;5067515;28;20271;-74
2022/05/17 05:06:18;;;;;;;4.72;4.32;;;;;;;21.54;45.88;95299.91;5064435;28;20202;-75
2022/05/17 05:08:45;;;;;;;10.75;5.55;;;;;;;21.61;46.48;95306.28;5065752;28;20202;-75
2022/05/17 05:11:12;;;;;;;8.35;6.25;;;;;;;22.49;43.83;95298.03;5065759;28;20198;-74
2022/05/17 05:13:39;;;;;;;7.22;5.07;;;;;;;24.56;39.49;95302.81;5066494;28;20202;-75
2022/05/17 05:16:10;;;;;;;7.63;5.28;;;;;;;25.72;36.70;95300.53;5064925;28;20886;-75
2022/05/17 05:18:36;;;;;;;6.75;5.28;;;;;;;28.55;32.19;95296.06;5065628;28;20267;-75
2022/05/17 05:21:06;;;;;;;11.60;5.10;;;;;;;30.63;29.32;95288.91;5065720;28;20679;-75
2022/05/17 05:23:34;;;;;;;8.93;5.38;;;;;;;32.76;26.62;95293.38;5064986;28;20205;-73
2022/05/17 05:26:01;;;;;;;14.68;7.38;;;;;;;34.84;24.61;95287.94;5065128;28;20226;-74
2022/05/17 05:28:29;;;;;;;19.42;6.20;;;;;;;36.64;21.75;95275.63;5066300;28;20205;-75
2022/05/17 05:30:56;;;;;;;8.57;6.13;;;;;;;36.94;21.94;95278.63;5065467;28;20275;-75
2022/05/17 05:33:23;;;;;;;8.98;5.85;;;;;;;37.24;21.04;95291.41;5066002;28;20209;-75
2022/05/17 05:35:50;;;;;;;10.57;6.00;;;;;;;37.31;21.27;95284.25;5063638;28;21772;-75
2022/05/17 05:38:17;;;;;;;6.88;6.28;;;;;;;37.30;20.69;95293.22;5066910;28;20209;-76
2022/05/17 05:40:46;;;;;;;6.85;4.78;;;;;;;36.41;21.88;95284.03;5065168;28;20622;-76
2022/05/17 05:43:13;;;;;;;6.45;6.00;;;;;;;36.96;21.27;95291.69;5066209;28;20206;-76
2022/05/17 05:45:40;;;;;;;6.13;4.85;;;;;;;36.89;20.81;95281.09;5064391;28;20320;-75
2022/05/17 05:48:07;;;;;;;5.85;4.38;;;;;;;37.60;19.99;95291.63;5065880;28;20187;-75
2022/05/17 05:50:34;;;;;;;6.57;4.47;;;;;;;37.10;20.61;95287.97;5065014;28;20251;-75
2022/05/17 05:53:04;;;;;;;5.15;4.75;;;;;;;36.17;21.35;95275.88;5064403;28;20216;-75
2022/05/17 05:55:32;;;;;;;11.15;7.60;;;;;;;37.21;20.77;95291.81;5064126;28;20205;-75
2022/05/17 05:58:01;;;;;;;9.63;5.88;;;;;;;36.71;20.92;95284.38;5065819;28;20202;-75
2022/05/17 06:00:28;;;;;;;7.72;6.50;;;;;;;36.35;21.64;95289.34;5064639;28;20202;-75
2022/05/17 06:02:56;;;;;;;8.25;5.53;;;;;;;35.72;22.24;95284.38;5065043;28;20258;-75
2022/05/17 06:05:24;;;;;;;34.17;6.05;;;;;;;35.38;22.76;95287.97;5064033;28;20691;-75
2022/05/17 06:07:51;;;;;;;7.75;5.22;;;;;;;35.78;21.74;95282.78;5065720;28;20260;-75
2022/05/17 06:10:20;;;;;;;6.50;5.80;;;;;;;36.76;20.72;95283.81;5064206;28;20205;-75
2022/05/17 06:12:47;;;;;;;5.30;4.80;;;;;;;34.10;23.30;95277.03;5063861;28;21628;-75
2022/05/17 06:15:15;;;;;;;8.40;4.95;;;;;;;34.43;23.65;95278.09;5064223;28;20210;-76
2022/05/17 06:17:42;;;;;;;11.05;5.05;;;;;;;34.13;23.93;95276.66;5064115;28;20665;-75
2022/05/17 06:20:12;;;;;;;8.32;5.35;;;;;;;34.90;23.11;95284.47;5064541;28;20945;-75
2022/05/17 06:22:39;;;;;;;6.47;5.55;;;;;;;34.85;23.48;95284.28;5063643;28;20196;-75
2022/05/17 06:25:08;;;;;;;6.03;5.40;;;;;;;34.96;22.39;95282.88;5064082;28;20225;-75
2022/05/17 06:27:35;;;;;;;8.50;4.68;;;;;;;34.23;22.80;95282.41;5064580;28;20205;-75
2022/05/17 06:30:01;;;;;;;11.32;4.50;;;;;;;34.01;23.85;95267.63;5063790;28;20650;-75
2022/05/17 06:32:30;;;;;;;5.47;4.28;;;;;;;33.66;24.21;95280.66;5064534;28;20285;-75
2022/05/17 06:34:57;;;;;;;6.82;4.78;;;;;;;34.06;23.41;95289.78;5064078;28;20206;-75
2022/05/17 06:37:23;;;;;;;9.80;5.07;;;;;;;34.31;23.96;95274.38;5064099;28;20255;-75
2022/05/17 06:39:50;;;;;;;6.13;3.92;;;;;;;33.25;24.75;95283.03;5063927;28;20200;-75
2022/05/17 06:42:17;;;;;;;25.67;8.88;;;;;;;33.07;25.43;95283.44;5064732;28;20198;-75
2022/05/17 06:44:44;;;;;;;26.55;11.93;;;;;;;32.80;25.68;95273.59;5063836;28;21606;-75
2022/05/17 06:47:11;;;;;;;8.75;6.18;;;;;;;32.45;26.07;95267.19;5063738;28;20288;-76
2022/05/17 06:49:40;;;;;;;11.25;5.25;;;;;;;32.08;26.80;95273.31;5064577;28;20206;-76
2022/05/17 06:52:09;;;;;;;5.85;4.63;;;;;;;31.13;28.06;95269.38;5062903;28;20205;-75
2022/05/17 06:54:36;;;;;;;12.23;4.95;;;;;;;31.25;27.81;95254.84;5063094;28;20193;-75
2022/05/17 06:57:06;;;;;;;6.85;4.40;;;;;;;31.14;27.98;95273.63;5062112;28;20202;-75
2022/05/17 06:59:35;;;;;;;7.38;4.78;;;;;;;30.77;28.56;95269.81;5063258;28;20206;-75
2022/05/17 07:02:02;;;;;;;9.43;5.43;;;;;;;30.78;28.92;95263.56;5063651;28;20202;-75
2022/05/17 07:04:29;;;;;;;13.52;5.70;;;;;;;30.25;29.19;95272.88;5063142;28;20209;-75
2022/05/17 07:06:58;;;;;;;13.60;7.13;;;;;;;30.17;29.16;95267.66;5062963;28;20209;-75
2022/05/17 07:09:27;;;;;;;12.00;5.53;;;;;;;30.10;29.81;95274.56;5064302;28;20212;-75
2022/05/17 07:14:39;;;;;;;23.30;11.70;;;;;;;29.40;30.73;95266.34;5062824;28;20274;-75
2022/05/17 07:17:06;;;;;;;8.35;5.80;;;;;;;29.40;30.17;95258.47;5062683;28;20246;-73
2022/05/17 07:19:34;;;;;;;20.23;9.10;;;;;;;29.12;31.12;95257.91;5062158;28;20360;-74
2022/05/17 07:22:03;;;;;;;10.93;5.50;;;;;;;29.16;31.00;95261.03;5063057;28;20271;-75
2022/05/17 07:24:31;;;;;;;9.63;6.68;;;;;;;28.49;32.55;95247.81;5063108;28;20206;-74
2022/05/17 07:26:58;;;;;;;14.15;6.43;;;;;;;28.02;33.29;95252.56;5064242;28;20235;-76
2022/05/17 07:29:25;;;;;;;8.25;5.20;;;;;;;27.47;33.19;95237.09;5064115;28;20198;-74
2022/05/17 07:31:52;;;;;;;7.00;4.70;;;;;;;27.60;34.09;95248.03;5063790;28;20249;-74
2022/05/17 07:34:19;;;;;;;14.18;4.55;;;;;;;27.98;33.84;95246.84;5062256;28;20208;-75
2022/05/17 07:36:46;;;;;;;9.70;5.18;;;;;;;28.23;33.19;95240.00;5063575;28;20293;-75
2022/05/17 07:39:14;;;;;;;9.88;5.40;;;;;;;28.42;33.99;95244.22;5064081;28;20202;-74
2022/05/17 07:41:42;;;;;;;10.82;4.97;;;;;;;28.53;33.06;95256.16;5064166;28;20205;-74
2022/05/17 07:44:11;;;;;;;8.95;5.40;;;;;;;28.55;32.71;95244.59;5063540;28;20202;-75
2022/05/17 07:46:38;;;;;;;9.55;4.53;;;;;;;28.65;32.63;95234.00;5062859;28;20646;-74
2022/05/17 07:49:06;;;;;;;9.75;4.80;;;;;;;28.63;32.95;95242.00;5064960;28;20196;-75
2022/05/17 07:51:33;;;;;;;5.55;4.63;;;;;;;28.38;33.57;95240.25;5061722;28;20202;-74
2022/05/17 07:54:00;;;;;;;6.35;4.78;;;;;;;28.28;32.98;95237.75;5063477;28;20224;-75
2022/05/17 07:56:28;;;;;;;10.07;5.63;;;;;;;27.98;33.21;95231.16;5070032;28;20213;-74
2022/05/17 07:58:55;;;;;;;15.27;4.70;;;;;;;28.21;33.22;95226.25;5068131;28;20263;-74
2022/05/17 08:01:22;;;;;;;8.95;5.15;;;;;;;28.17;33.27;95230.16;5062339;28;20215;-74
2022/05/17 08:03:49;;;;;;;7.70;4.78;;;;;;;28.01;34.64;95225.63;5062788;28;20198;-74
2022/05/17 08:06:15;;;;;;;9.68;5.10;;;;;;;27.66;34.95;95226.53;5062312;28;20229;-74
2022/05/17 08:08:42;;;;;;;27.60;5.72;;;;;;;27.60;35.16;95211.47;5063881;28;20725;-74
2022/05/17 08:11:09;;;;;;;24.92;5.75;;;;;;;27.06;36.15;95223.69;5061110;28;20201;-74
2022/05/17 08:13:37;;;;;;;10.38;5.38;;;;;;;26.86;36.03;95216.94;5062378;28;20285;-74
2022/05/17 08:16:04;;;;;;;9.07;4.57;;;;;;;27.04;35.81;95212.59;5061377;28;20255;-75
2022/05/17 08:18:31;;;;;;;161.88;109.03;;;;;;;27.09;35.52;95209.53;5062350;28;20292;-74
2022/05/17 08:20:58;;;;;;;38.90;27.40;;;;;;;27.48;35.74;95207.41;5062469;28;20232;-74
2022/05/17 08:23:25;;;;;;;13.20;5.95;;;;;;;27.78;34.98;95209.66;5062936;28;21523;-74
2022/05/17 08:28:37;;;;;;;7.50;4.93;;;;;;;27.87;34.28;95194.03;5061668;28;20262;-74
2022/05/17 08:31:04;;;;;;;6.95;4.78;;;;;;;28.15;33.95;95205.16;5062114;28;20279;-74
2022/05/17 08:33:31;;;;;;;14.15;4.78;;;;;;;28.52;33.11;95202.25;5062376;28;21218;-74
2022/05/17 08:36:01;;;;;;;9.00;7.25;;;;;;;28.80;33.13;95195.81;5063642;28;20205;-74
2022/05/17 08:38:30;;;;;;;9.95;7.07;;;;;;;28.91;33.29;95182.47;5065079;28;20694;-74
2022/05/17 08:41:06;;;;;;;12.05;6.82;;;;;;;29.06;33.13;95200.97;5065475;28;20259;-73
2022/05/17 08:43:44;;;;;;;19.55;8.13;;;;;;;29.00;32.95;95191.94;5066615;28;20651;-75
2022/05/17 08:46:25;;;;;;;10.70;5.28;;;;;;;29.04;32.70;95192.44;5066210;28;20699;-75
2022/05/17 08:48:55;;;;;;;7.50;4.35;;;;;;;28.84;32.85;95201.56;5066245;28;21726;-75
2022/05/17 08:51:32;;;;;;;6.15;4.18;;;;;;;28.79;32.41;95191.53;5067067;28;20881;-74
2022/05/17 08:53:59;;;;;;;8.20;4.05;;;;;;;29.08;31.16;95188.53;5067663;28;20277;-75
2022/05/17 08:56:30;;;;;;;5.30;3.95;;;;;;;28.87;31.42;95191.59;5068176;28;20190;-75
2022/05/17 08:59:00;;;;;;;5.25;3.85;;;;;;;29.01;30.31;95177.88;5066502;28;20206;-75
2022/05/17 09:01:36;;;;;;;7.50;3.80;;;;;;;28.93;30.21;95185.75;5067240;28;20205;-75
2022/05/17 09:04:21;;;;;;;6.43;3.95;;;;;;;28.79;29.30;95181.09;5067361;28;20282;-76
2022/05/17 09:07:00;;;;;;;5.72;5.22;;;;;;;28.75;28.86;95174.53;5065921;28;20229;-75
2022/05/17 09:09:33;;;;;;;8.07;6.32;;;;;;;28.84;28.98;95176.22;5066424;28;20251;-75
2022/05/17 09:12:08;;;;;;;14.77;7.22;;;;;;;28.79;30.41;95183.69;5064746;28;20202;-76
2022/05/17 09:14:41;;;;;;;10.82;9.50;;;;;;;28.79;29.62;95183.69;5065901;28;20204;-75
2022/05/17 09:17:11;;;;;;;5.15;4.72;;;;;;;28.95;28.31;95177.72;5066303;28;20210;-76
2022/05/17 09:19:39;;;;;;;7.40;4.07;;;;;;;28.83;28.18;95174.59;5067913;28;20641;-75
2022/05/17 09:22:06;;;;;;;5.75;3.30;;;;;;;28.71;29.03;95176.63;5065620;28;20197;-74
2022/05/17 09:24:38;;;;;;;3.67;3.38;;;;;;;28.35;29.19;95177.84;5065296;28;20209;-74
2022/05/17 09:27:08;;;;;;;4.60;3.40;;;;;;;28.55;28.64;95170.56;5065634;28;20232;-74
2022/05/17 09:29:40;;;;;;;3.20;2.90;;;;;;;28.66;27.68;95160.63;5064211;28;20228;-74
2022/05/17 09:32:11;;;;;;;3.63;3.03;;;;;;;28.31;28.14;95159.03;5064778;28;20587;-74
2022/05/17 09:34:40;;;;;;;3.08;2.88;;;;;;;28.51;29.24;95159.59;5062317;28;20659;-75
2022/05/17 09:37:10;;;;;;;6.38;3.15;;;;;;;28.53;28.95;95162.03;5064200;28;20202;-74
2022/05/17 09:39:38;;;;;;;3.38;3.08;;;;;;;28.53;29.06;95157.63;5064385;28;20210;-75
2022/05/17 09:42:08;;;;;;;4.85;3.75;;;;;;;28.56;28.40;95156.50;5065088;28;20209;-74
2022/05/17 09:44:41;;;;;;;6.70;5.63;;;;;;;28.74;28.70;95144.13;5063891;28;20190;-74
2022/05/17 09:47:24;;;;;;;7.22;3.13;;;;;;;28.87;28.93;95144.53;5064718;28;20317;-73
2022/05/17 09:52:38;;;;;;;5.93;5.03;;;;;;;29.37;27.96;95136.53;5064376;28;20228;-74
2022/05/17 09:55:21;;;;;;;7.53;5.55;;;;;;;29.43;26.81;95124.63;5065630;28;20213;-74
2022/05/17 09:57:53;;;;;;;4.80;4.18;;;;;;;29.56;26.57;95111.00;5064394;28;21108;-74
2022/05/17 10:00:26;;;;;;;5.10;4.53;;;;;;;29.41;25.99;95131.81;5060615;28;20209;-74
2022/05/17 10:02:57;;;;;;;5.85;4.78;;;;;;;29.23;26.25;95123.28;5064308;28;20684;-74
2022/05/17 10:05:26;;;;;;;4.38;3.17;;;;;;;29.19;25.94;95117.56;5065438;28;20311;-74
2022/05/17 10:07:57;;;;;;;4.75;3.83;;;;;;;29.34;26.17;95122.94;5064571;28;20206;-74
2022/05/17 10:10:30;;;;;;;5.90;2.80;;;;;;;29.40;26.27;95119.72;5062361;28;20202;-74
2022/05/17 10:13:04;;;;;;;6.47;2.30;;;;;;;29.19;25.83;95122.81;5063781;28;20197;-74
2022/05/17 10:15:37;;;;;;;5.22;4.47;;;;;;;29.25;25.95;95110.84;5062963;28;20215;-74
2022/05/17 10:18:11;;;;;;;3.15;2.22;;;;;;;29.53;24.31;95108.72;5064187;28;20676;-74
2022/05/17 10:20:43;;;;;;;2.38;2.28;;;;;;;29.63;23.85;95096.28;5065025;28;20229;-74
2022/05/17 10:23:25;;;;;;;6.10;2.78;;;;;;;29.72;24.18;95093.44;5064517;28;20198;-74
2022/05/17 10:25:54;;;;;;;8.75;3.40;;;;;;;29.66;24.57;95093.31;5065198;28;20225;-75
2022/05/17 10:28:31;;;;;;;3.00;2.80;;;;;;;29.63;24.64;95094.47;5064853;28;20315;-75
2022/05/17 10:31:11;;;;;;;2.42;2.22;;;;;;;29.49;25.90;95099.56;5065170;28;20348;-75
2022/05/17 10:33:51;;;;;;;8.02;3.45;;;;;;;29.34;25.49;95088.91;5063859;28;20209;-74
2022/05/17 10:36:24;;;;;;;6.00;2.55;;;;;;;29.38;25.42;95085.00;5064835;28;20201;-74
2022/05/17 10:39:02;;;;;;;3.25;3.05;;;;;;;29.41;25.73;95085.50;5065417;28;20284;-74
2022/05/17 10:41:29;;;;;;;6.78;4.75;;;;;;;29.65;25.56;95079.41;5065529;28;20197;-74
2022/05/17 10:43:56;;;;;;;21.55;17.65;;;;;;;29.81;26.48;95077.72;5065586;28;20979;-75
2022/05/17 10:46:30;;;;;;;8.93;7.05;;;;;;;29.95;25.10;95082.25;5064328;28;20724;-74
2022/05/17 10:49:07;;;;;;;19.67;17.65;;;;;;;30.05;25.54;95073.25;5065280;28;20202;-74
2022/05/17 10:51:40;;;;;;;8.07;5.10;;;;;;;29.53;25.55;95070.25;5068531;28;20212;-74
2022/05/17 10:54:13;;;;;;;5.20;4.38;;;;;;;29.74;25.90;95070.53;5070251;28;20206;-73
2022/05/17 10:56:49;;;;;;;19.30;15.90;;;;;;;29.93;26.81;95060.66;5066016;28;20769;-73
2022/05/17 10:59:26;;;;;;;23.98;17.17;;;;;;;30.03;26.08;95058.66;5062639;28;20202;-74
2022/05/17 11:02:14;;;;;;;17.50;12.02;;;;;;;29.82;25.92;95055.78;5070608;28;20590;-74
2022/05/17 11:04:58;;;;;;;14.93;11.93;;;;;;;29.89;25.76;95048.88;5082093;28;20205;-74
2022/05/17 11:07:36;;;;;;;9.35;8.45;;;;;;;29.87;25.88;95040.38;5086150;28;20222;-74
2022/05/17 11:10:15;;;;;;;13.77;10.45;;;;;;;29.71;26.67;95039.44;5085739;28;20649;-75
2022/05/17 11:12:49;;;;;;;14.77;11.15;;;;;;;29.74;26.79;95043.50;5086702;28;20612;-74
2022/05/17 11:15:21;;;;;;;5.18;3.90;;;;;;;29.61;27.18;95030.97;5084952;28;20197;-75
2022/05/17 11:17:54;;;;;;;8.13;5.25;;;;;;;29.78;26.86;95037.78;5084703;28;20189;-75
2022/05/17 11:20:27;;;;;;;6.47;5.53;;;;;;;29.66;27.36;95026.03;5084370;28;20229;-75
2022/05/17 11:23:09;;;;;;;5.55;5.07;;;;;;;29.56;27.13;95014.94;5084740;28;20197;-75
2022/05/17 11:26:20;;;;;;;4.50;4.10;;;;;;;29.73;26.32;95026.16;5083500;28;20232;-75
2022/05/17 11:29:17;;;;;;;5.55;5.03;;;;;;;29.96;26.66;95023.63;5084356;28;20212;-75
2022/05/17 11:31:55;;;;;;;5.28;4.78;;;;;;;30.02;26.51;95017.72;5085469;28;20501;-75
2022/05/17 11:34:33;;;;;;;5.45;3.50;;;;;;;29.99;26.80;95011.03;5086028;28;20201;-75
2022/05/17 11:37:02;;;;;;;5.00;2.72;;;;;;;29.99;26.66;95010.19;5088751;28;20189;-75
2022/05/17 11:39:50;;;;;;;8.65;3.42;;;;;;;30.03;26.58;94999.22;5088737;28;20189;-75
2022/05/17 11:42:29;;;;;;;4.43;3.75;;;;;;;29.94;26.67;94997.59;5089826;28;20236;-74
2022/05/17 11:44:57;;;;;;;3.67;3.35;;;;;;;29.98;26.72;95003.28;5089789;28;20189;-75
2022/05/17 11:47:30;;;;;;;3.25;3.08;;;;;;;29.94;26.26;94991.56;5089916;28;20279;-75